Time;durP1;ratioP1;P1;durP2;ratioP2;P2;SDS_P1;SDS_P2;PMS_P1;PMS_P2;Temp;Humidity;BMP_temperature;BMP_pressure;BME280_temperature;BME280_humidity;BME280_pressure;Samples;Min_cycle;Max_cycle;Signal;HPM_P1;HPM_P2
2023/09/29 00:00:19;;;;;;;16.05;13.10;;;13.20;99.90;;;;;;5006037;28;20424;-63
2023/09/29 00:02:46;;;;;;;15.40;12.35;;;13.20;99.90;;;;;;5020655;28;20037;-63
2023/09/29 00:05:14;;;;;;;16.80;11.95;;;13.10;99.90;;;;;;5025024;28;20068;-62
2023/09/29 00:07:40;;;;;;;16.98;12.77;;;13.10;99.90;;;;;;5028548;28;20017;-62
2023/09/29 00:10:10;;;;;;;14.52;11.10;;;13.10;99.90;;;;;;5016658;28;20028;-63
2023/09/29 00:12:37;;;;;;;14.57;10.90;;;13.00;99.90;;;;;;5021070;28;20056;-63
2023/09/29 00:15:04;;;;;;;16.25;11.18;;;13.00;99.90;;;;;;5026740;28;20053;-63
2023/09/29 00:17:31;;;;;;;14.60;10.65;;;13.00;99.90;;;;;;5024929;28;20076;-63
2023/09/29 00:19:57;;;;;;;14.50;10.65;;;13.00;99.90;;;;;;5028485;28;20036;-63
2023/09/29 00:22:22;;;;;;;16.25;10.90;;;13.00;99.90;;;;;;5026662;28;20025;-63
2023/09/29 00:24:48;;;;;;;14.32;10.60;;;13.00;99.90;;;;;;5023086;28;20036;-62
2023/09/29 00:27:13;;;;;;;13.70;11.07;;;12.90;99.90;;;;;;5028142;28;20069;-64
2023/09/29 00:29:39;;;;;;;16.20;11.32;;;13.00;99.90;;;;;;5026323;28;20385;-63
2023/09/29 00:32:05;;;;;;;16.45;10.82;;;12.90;99.90;;;;;;5005500;28;20025;-63
2023/09/29 00:34:30;;;;;;;12.52;10.00;;;12.90;99.90;;;;;;5027147;28;20025;-63
2023/09/29 00:36:56;;;;;;;12.88;10.32;;;12.90;99.90;;;;;;5023878;28;20040;-62
2023/09/29 00:39:22;;;;;;;14.02;10.27;;;12.90;99.90;;;;;;5026387;28;20014;-62
2023/09/29 00:41:49;;;;;;;15.82;12.27;;;12.90;99.90;;;;;;5030554;28;20105;-63
2023/09/29 00:44:14;;;;;;;13.40;10.27;;;12.90;99.90;;;;;;5028030;28;20045;-64
2023/09/29 00:46:41;;;;;;;14.00;11.23;;;12.90;99.90;;;;;;5029351;28;20516;-67
2023/09/29 00:49:07;;;;;;;18.15;13.63;;;12.80;99.90;;;;;;5024686;28;20036;-69
2023/09/29 00:51:34;;;;;;;17.73;13.50;;;12.90;99.90;;;;;;5025492;28;20083;-69
2023/09/29 00:54:08;;;;;;;16.23;12.63;;;12.90;99.90;;;;;;5028553;28;20044;-69
2023/09/29 00:56:35;;;;;;;12.63;10.48;;;12.90;99.90;;;;;;5030571;28;20056;-58
2023/09/29 00:59:01;;;;;;;17.25;12.05;;;12.80;99.90;;;;;;5026948;28;20392;-59
2023/09/29 01:01:26;;;;;;;17.15;12.98;;;12.80;99.90;;;;;;5028506;28;20031;-56
2023/09/29 01:03:52;;;;;;;16.95;12.68;;;12.80;99.90;;;;;;5036384;28;20104;-57
2023/09/29 01:06:18;;;;;;;17.92;12.02;;;12.80;99.90;;;;;;5035345;28;20025;-57
2023/09/29 01:08:44;;;;;;;16.40;12.38;;;12.80;99.90;;;;;;5033266;28;20460;-56
2023/09/29 01:11:10;;;;;;;13.10;10.63;;;12.80;99.90;;;;;;5026901;28;20033;-57
2023/09/29 01:13:40;;;;;;;15.32;10.63;;;12.70;99.90;;;;;;5029964;28;20233;-59
2023/09/29 01:16:06;;;;;;;15.00;10.93;;;12.80;99.90;;;;;;5027160;28;20516;-58
2023/09/29 01:18:33;;;;;;;13.40;10.35;;;12.70;99.90;;;;;;5032355;28;20021;-58
2023/09/29 01:20:59;;;;;;;15.52;11.75;;;12.70;99.90;;;;;;5028517;28;20029;-57
2023/09/29 01:23:34;;;;;;;17.70;12.98;;;12.70;99.90;;;;;;5030868;28;20021;-58
2023/09/29 01:26:02;;;;;;;20.02;13.43;;;12.70;99.90;;;;;;5023062;28;20498;-56
2023/09/29 01:28:28;;;;;;;15.57;12.95;;;12.70;99.90;;;;;;5030931;28;20022;-58
2023/09/29 01:30:54;;;;;;;18.15;13.45;;;12.70;99.90;;;;;;5029409;28;20102;-58
2023/09/29 01:33:21;;;;;;;19.73;14.02;;;12.80;99.90;;;;;;5023570;28;20085;-57
2023/09/29 01:35:50;;;;;;;20.98;13.98;;;12.80;99.90;;;;;;5021915;28;20270;-57
2023/09/29 01:38:16;;;;;;;15.68;12.07;;;12.90;99.90;;;;;;5029171;28;20040;-58
2023/09/29 01:40:44;;;;;;;16.05;12.82;;;12.80;99.90;;;;;;5026268;28;20184;-57
2023/09/29 01:43:10;;;;;;;16.88;11.80;;;12.80;99.90;;;;;;5026928;28;20030;-57
2023/09/29 01:45:37;;;;;;;18.50;12.77;;;12.80;99.90;;;;;;5029744;28;20393;-57
2023/09/29 01:48:04;;;;;;;15.95;11.82;;;12.70;99.90;;;;;;5021074;28;20033;-57
2023/09/29 01:50:32;;;;;;;14.77;11.07;;;12.80;99.90;;;;;;5024554;28;20457;-58
2023/09/29 01:52:58;;;;;;;13.30;10.35;;;12.80;99.90;;;;;;5029123;28;20053;-57
2023/09/29 01:55:24;;;;;;;13.90;10.68;;;12.70;99.90;;;;;;5027170;28;20103;-57
2023/09/29 01:57:53;;;;;;;15.90;11.48;;;12.70;99.90;;;;;;5026505;28;20021;-53
2023/09/29 02:00:19;;;;;;;12.55;10.55;;;12.70;99.90;;;;;;5033856;28;20033;-55
2023/09/29 02:02:48;;;;;;;15.63;11.10;;;12.70;99.90;;;;;;5034066;28;20021;-57
2023/09/29 02:05:16;;;;;;;15.07;12.00;;;12.70;99.90;;;;;;5036191;28;20029;-57
2023/09/29 02:07:42;;;;;;;14.48;11.90;;;12.70;99.90;;;;;;5032331;28;20149;-57
2023/09/29 02:10:08;;;;;;;13.68;10.50;;;12.70;99.90;;;;;;5037481;28;20123;-58
2023/09/29 02:12:34;;;;;;;12.88;10.82;;;12.70;99.90;;;;;;5011232;28;20448;-57
2023/09/29 02:15:00;;;;;;;12.63;9.63;;;12.70;99.90;;;;;;5035478;28;20154;-57
2023/09/29 02:17:27;;;;;;;14.20;10.60;;;12.70;99.90;;;;;;5031828;28;20025;-57
2023/09/29 02:19:53;;;;;;;12.90;10.73;;;12.70;99.90;;;;;;5034386;28;20040;-57
2023/09/29 02:22:22;;;;;;;14.02;10.93;;;12.60;99.90;;;;;;5028461;28;20025;-58
2023/09/29 02:24:48;;;;;;;14.90;11.77;;;12.60;99.90;;;;;;5027981;28;20103;-58
2023/09/29 02:27:16;;;;;;;16.98;10.13;;;12.70;99.90;;;;;;5026551;28;20030;-58
2023/09/29 02:29:42;;;;;;;14.90;10.60;;;12.60;99.90;;;;;;5025888;28;20035;-57
2023/09/29 02:32:07;;;;;;;16.50;11.70;;;12.60;99.90;;;;;;5027223;28;20384;-61
2023/09/29 02:34:33;;;;;;;14.55;11.30;;;12.60;99.90;;;;;;5033540;28;20105;-56
2023/09/29 02:36:59;;;;;;;15.98;11.93;;;12.60;99.90;;;;;;5027240;28;20506;-57
2023/09/29 02:39:24;;;;;;;13.32;10.63;;;12.60;99.90;;;;;;5029781;28;20032;-57
2023/09/29 02:41:50;;;;;;;15.43;11.80;;;12.60;99.90;;;;;;5021490;28;20020;-62
2023/09/29 02:44:15;;;;;;;18.38;12.05;;;12.60;99.90;;;;;;5027625;28;20388;-62
2023/09/29 02:46:41;;;;;;;15.55;11.40;;;12.60;99.90;;;;;;5026219;28;20086;-63
2023/09/29 02:49:07;;;;;;;15.15;10.88;;;12.60;99.90;;;;;;5024632;28;20033;-62
2023/09/29 02:51:33;;;;;;;15.25;11.55;;;12.50;99.90;;;;;;5027557;28;20029;-56
2023/09/29 02:53:59;;;;;;;15.23;11.32;;;12.50;99.90;;;;;;5029232;28;20029;-59
2023/09/29 02:56:25;;;;;;;16.85;11.25;;;12.50;99.90;;;;;;5024280;28;20061;-58
2023/09/29 02:58:54;;;;;;;15.07;10.30;;;12.50;99.90;;;;;;5027905;28;20184;-56
2023/09/29 03:01:19;;;;;;;14.60;11.23;;;12.50;99.90;;;;;;5028299;28;20029;-56
2023/09/29 03:03:46;;;;;;;16.70;12.00;;;12.50;99.90;;;;;;5024131;28;20029;-55
2023/09/29 03:06:23;;;;;;;10.98;9.23;;;12.50;99.90;;;;;;5018195;28;20127;-55
2023/09/29 03:08:55;;;;;;;16.92;12.02;;;12.40;99.90;;;;;;5010000;28;20017;-56
2023/09/29 03:11:21;;;;;;;15.57;10.93;;;12.50;99.90;;;;;;5025599;28;20115;-55
2023/09/29 03:13:47;;;;;;;17.88;12.80;;;12.40;99.90;;;;;;5025359;28;20036;-57
2023/09/29 03:16:13;;;;;;;16.13;11.32;;;12.40;99.90;;;;;;5027844;28;20029;-56
2023/09/29 03:18:39;;;;;;;13.55;11.02;;;12.50;99.90;;;;;;5029602;28;20027;-55
2023/09/29 03:21:05;;;;;;;13.43;10.77;;;12.50;99.90;;;;;;5013662;28;20475;-55
2023/09/29 03:23:34;;;;;;;13.77;10.70;;;12.40;99.90;;;;;;5006462;28;20025;-53
2023/09/29 03:26:01;;;;;;;14.02;10.68;;;12.40;99.90;;;;;;5020471;28;20077;-57
2023/09/29 03:28:26;;;;;;;18.05;11.82;;;12.40;99.90;;;;;;5025533;28;20021;-56
2023/09/29 03:30:52;;;;;;;19.75;13.95;;;12.40;99.90;;;;;;5025455;28;20021;-57
2023/09/29 03:33:17;;;;;;;14.80;11.82;;;12.50;99.90;;;;;;5027534;28;20484;-56
2023/09/29 03:35:43;;;;;;;14.25;11.15;;;12.50;99.90;;;;;;5023732;28;20033;-56
2023/09/29 03:38:09;;;;;;;17.90;12.60;;;12.50;99.90;;;;;;5032384;28;20086;-55
2023/09/29 03:40:34;;;;;;;18.20;13.57;;;12.50;99.90;;;;;;5021231;28;20068;-57
2023/09/29 03:43:01;;;;;;;15.90;12.93;;;12.50;99.90;;;;;;5027159;28;20079;-54
2023/09/29 03:45:27;;;;;;;18.23;13.00;;;12.60;99.90;;;;;;5020748;28;20033;-59
2023/09/29 03:47:52;;;;;;;18.25;11.88;;;12.60;99.90;;;;;;5025730;28;20022;-56
2023/09/29 03:50:18;;;;;;;18.83;13.52;;;12.60;99.90;;;;;;5027459;28;20091;-55
2023/09/29 03:52:46;;;;;;;15.85;11.73;;;12.60;99.90;;;;;;5025074;28;20017;-57
2023/09/29 03:55:12;;;;;;;15.73;12.18;;;12.60;99.90;;;;;;5024975;28;20033;-55
2023/09/29 03:57:38;;;;;;;19.35;13.30;;;12.60;99.90;;;;;;5027281;28;20037;-57
2023/09/29 04:00:12;;;;;;;16.63;12.40;;;12.60;99.90;;;;;;5024646;28;20156;-57
2023/09/29 04:02:42;;;;;;;21.55;12.90;;;12.60;99.90;;;;;;5021771;28;20061;-56
2023/09/29 04:05:09;;;;;;;11.13;9.82;;;12.60;99.90;;;;;;5010455;28;20040;-57
2023/09/29 04:07:36;;;;;;;12.98;10.38;;;12.50;99.90;;;;;;5021549;28;20036;-55
2023/09/29 04:10:02;;;;;;;14.10;11.57;;;12.50;99.90;;;;;;5021163;28;20033;-58
2023/09/29 04:12:28;;;;;;;14.82;11.52;;;12.50;99.90;;;;;;5031033;28;20025;-56
2023/09/29 04:14:53;;;;;;;13.95;10.98;;;12.40;99.90;;;;;;5025587;28;20036;-55
2023/09/29 04:17:20;;;;;;;10.02;8.63;;;12.40;99.90;;;;;;5032469;28;20064;-57
2023/09/29 04:19:46;;;;;;;13.55;10.05;;;12.40;99.90;;;;;;5030461;28;20029;-56
2023/09/29 04:22:11;;;;;;;10.68;8.77;;;12.40;99.90;;;;;;5027429;28;20590;-54
2023/09/29 04:24:37;;;;;;;11.82;10.20;;;12.30;99.90;;;;;;5030724;28;20649;-56
2023/09/29 04:27:03;;;;;;;15.35;9.98;;;12.30;99.90;;;;;;5028490;28;20032;-55
2023/09/29 04:29:28;;;;;;;14.70;11.52;;;12.30;99.90;;;;;;5024952;28;20026;-58
2023/09/29 04:31:54;;;;;;;13.95;10.35;;;12.30;99.90;;;;;;5035409;28;20078;-57
2023/09/29 04:34:19;;;;;;;15.23;11.48;;;12.20;99.90;;;;;;5029951;28;20108;-57
2023/09/29 04:36:45;;;;;;;15.85;12.32;;;12.30;99.90;;;;;;5025850;28;20079;-58
2023/09/29 04:39:10;;;;;;;16.50;12.20;;;12.30;99.90;;;;;;5024417;28;20427;-56
2023/09/29 04:41:37;;;;;;;17.73;13.85;;;12.30;99.90;;;;;;5030230;28;20425;-57
2023/09/29 04:44:05;;;;;;;17.20;12.23;;;12.20;99.90;;;;;;5029378;28;20037;-56
2023/09/29 04:46:31;;;;;;;16.27;11.85;;;12.20;99.90;;;;;;5029036;28;20031;-56
2023/09/29 04:48:58;;;;;;;14.90;11.63;;;12.20;99.90;;;;;;5026242;28;20033;-57
2023/09/29 04:51:23;;;;;;;14.52;10.77;;;12.10;99.90;;;;;;5031577;28;20032;-56
2023/09/29 04:53:49;;;;;;;13.13;9.95;;;12.10;99.90;;;;;;5027259;28;20029;-54
2023/09/29 04:56:15;;;;;;;17.90;13.18;;;12.10;99.90;;;;;;5035460;28;20032;-55
2023/09/29 04:58:40;;;;;;;16.55;13.25;;;12.10;99.90;;;;;;5031227;28;20033;-56
2023/09/29 05:01:06;;;;;;;15.35;10.80;;;12.10;99.90;;;;;;5028782;28;20428;-55
2023/09/29 05:03:32;;;;;;;14.70;10.77;;;12.10;99.90;;;;;;5026115;28;20443;-53
2023/09/29 05:05:57;;;;;;;14.18;10.52;;;12.10;99.90;;;;;;5031805;28;20034;-56
2023/09/29 05:08:23;;;;;;;11.85;10.00;;;12.10;99.90;;;;;;5030080;28;20040;-52
2023/09/29 05:10:48;;;;;;;15.25;11.13;;;12.00;99.90;;;;;;5033927;28;20682;-54
2023/09/29 05:13:15;;;;;;;14.02;11.25;;;12.10;99.90;;;;;;5026721;28;20516;-55
2023/09/29 05:15:41;;;;;;;13.20;10.55;;;12.10;99.90;;;;;;5028483;28;20115;-55
2023/09/29 05:18:06;;;;;;;15.98;11.63;;;12.00;99.90;;;;;;5029524;28;20433;-53
2023/09/29 05:20:32;;;;;;;16.83;12.63;;;12.00;99.90;;;;;;5027129;28;20044;-56
2023/09/29 05:22:57;;;;;;;17.45;12.50;;;12.00;99.90;;;;;;5029580;28;20026;-51
2023/09/29 05:25:23;;;;;;;13.13;10.02;;;12.10;99.90;;;;;;5026878;28;20055;-57
2023/09/29 05:27:48;;;;;;;13.23;9.32;;;12.10;99.90;;;;;;5028466;28;20032;-56
2023/09/29 05:30:15;;;;;;;16.15;11.13;;;12.10;99.90;;;;;;5024678;28;20128;-56
2023/09/29 05:32:41;;;;;;;12.30;9.40;;;12.20;99.90;;;;;;5030790;28;20040;-54
2023/09/29 05:35:07;;;;;;;16.67;10.98;;;12.20;99.90;;;;;;5025759;28;20018;-55
2023/09/29 05:37:33;;;;;;;13.82;10.55;;;12.30;99.90;;;;;;5029139;28;20025;-56
2023/09/29 05:40:03;;;;;;;18.70;14.18;;;12.30;99.90;;;;;;5024863;28;20080;-54
2023/09/29 05:42:30;;;;;;;15.13;11.70;;;12.30;99.90;;;;;;5019875;28;20100;-56
2023/09/29 05:44:55;;;;;;;14.05;10.85;;;12.40;99.90;;;;;;5034206;28;20033;-56
2023/09/29 05:47:21;;;;;;;14.85;11.70;;;12.60;99.90;;;;;;5031187;28;20108;-54
2023/09/29 05:49:47;;;;;;;13.65;10.27;;;12.70;99.90;;;;;;5029303;28;20060;-54
2023/09/29 05:52:12;;;;;;;13.85;9.93;;;13.10;99.90;;;;;;5026578;28;20084;-51
2023/09/29 05:54:38;;;;;;;9.75;8.68;;;13.60;99.90;;;;;;5026002;28;20025;-54
2023/09/29 05:57:03;;;;;;;10.90;8.13;;;14.10;99.90;;;;;;5027528;28;20110;-54
2023/09/29 05:59:29;;;;;;;11.88;8.95;;;14.70;99.90;;;;;;5031449;28;20029;-55
2023/09/29 06:01:55;;;;;;;8.57;7.40;;;15.20;99.90;;;;;;5025875;28;20060;-55
2023/09/29 06:04:22;;;;;;;8.20;7.35;;;15.80;99.90;;;;;;5030365;28;20060;-53
2023/09/29 06:06:47;;;;;;;9.88;8.57;;;16.30;99.90;;;;;;5021957;28;20033;-51
2023/09/29 06:09:13;;;;;;;8.55;7.65;;;16.80;99.90;;;;;;5026685;28;20086;-53
2023/09/29 06:11:39;;;;;;;9.50;6.95;;;17.30;99.90;;;;;;5025225;28;20397;-53
2023/09/29 06:14:05;;;;;;;11.27;7.10;;;17.90;99.90;;;;;;5028211;28;20100;-52
2023/09/29 06:16:30;;;;;;;9.90;7.57;;;18.30;99.90;;;;;;5026608;28;20754;-52
2023/09/29 06:18:56;;;;;;;8.35;7.28;;;18.60;99.90;;;;;;5018483;28;20101;-51
2023/09/29 06:21:22;;;;;;;11.15;7.30;;;18.90;99.90;;;;;;5025303;28;20029;-52
2023/09/29 06:23:48;;;;;;;10.15;7.57;;;19.10;99.90;;;;;;5028166;28;20021;-52
2023/09/29 06:26:13;;;;;;;8.27;7.30;;;19.40;99.90;;;;;;5024020;28;20441;-51
2023/09/29 06:28:39;;;;;;;8.57;7.05;;;19.80;99.90;;;;;;5023875;28;20100;-53
2023/09/29 06:31:04;;;;;;;11.07;7.38;;;20.20;99.90;;;;;;5026335;28;20036;-54
2023/09/29 06:33:30;;;;;;;9.07;7.25;;;20.60;99.90;;;;;;5023672;28;20082;-56
2023/09/29 06:35:55;;;;;;;11.13;7.68;;;20.80;99.90;;;;;;5028652;28;20030;-53
2023/09/29 06:38:21;;;;;;;9.38;7.28;;;20.90;99.90;;;;;;5027567;28;20025;-54
2023/09/29 06:40:47;;;;;;;8.75;7.00;;;20.80;97.70;;;;;;5016795;28;20041;-52
2023/09/29 06:43:12;;;;;;;9.15;7.07;;;20.80;99.90;;;;;;5027634;28;20029;-55
2023/09/29 06:45:39;;;;;;;8.80;7.80;;;20.90;99.90;;;;;;5024825;28;20048;-55
2023/09/29 06:48:05;;;;;;;8.70;7.82;;;21.30;99.90;;;;;;5025330;28;20030;-55
2023/09/29 06:50:30;;;;;;;7.70;6.90;;;21.60;99.90;;;;;;5027274;28;20029;-56
2023/09/29 06:52:56;;;;;;;6.47;5.90;;;21.90;99.90;;;;;;5024476;28;20037;-52
2023/09/29 06:55:21;;;;;;;8.70;6.85;;;21.90;98.20;;;;;;5023852;28;20056;-52
2023/09/29 06:57:48;;;;;;;7.05;6.13;;;22.00;97.50;;;;;;5026140;28;20025;-55
2023/09/29 07:00:13;;;;;;;7.28;6.47;;;22.10;96.30;;;;;;5029119;28;20444;-56
2023/09/29 07:02:39;;;;;;;9.68;5.93;;;22.20;94.00;;;;;;5029393;28;20083;-54
2023/09/29 07:05:05;;;;;;;9.05;5.88;;;22.10;93.60;;;;;;5022332;28;20044;-55
2023/09/29 07:07:31;;;;;;;7.13;5.85;;;22.10;92.50;;;;;;5024643;28;20045;-54
2023/09/29 07:09:57;;;;;;;6.80;5.90;;;22.20;94.10;;;;;;5024485;28;20029;-54
2023/09/29 07:12:22;;;;;;;7.47;6.68;;;22.30;93.60;;;;;;5025323;28;20040;-56
2023/09/29 07:14:48;;;;;;;6.40;5.80;;;22.40;94.00;;;;;;5023079;28;20105;-55
2023/09/29 07:17:13;;;;;;;9.80;6.38;;;22.60;92.60;;;;;;5021627;28;20112;-55
2023/09/29 07:19:39;;;;;;;7.15;5.88;;;22.80;92.10;;;;;;5027111;28;20024;-56
2023/09/29 07:22:05;;;;;;;5.90;5.32;;;23.00;91.40;;;;;;5023886;28;20022;-55
2023/09/29 07:24:30;;;;;;;7.60;5.82;;;23.10;91.90;;;;;;5025803;28;20520;-55
2023/09/29 07:26:56;;;;;;;7.25;6.22;;;23.10;91.00;;;;;;5025005;28;20694;-55
2023/09/29 07:29:21;;;;;;;9.57;6.32;;;23.30;90.90;;;;;;5023174;28;20083;-55
2023/09/29 07:31:48;;;;;;;6.03;5.43;;;23.50;90.80;;;;;;5025895;28;20043;-55
2023/09/29 07:34:15;;;;;;;5.10;4.40;;;23.70;88.00;;;;;;5022679;28;20032;-55
2023/09/29 07:36:44;;;;;;;5.18;4.65;;;23.90;88.10;;;;;;5025252;28;20026;-54
2023/09/29 07:39:13;;;;;;;6.00;5.40;;;24.00;86.50;;;;;;5027990;28;20021;-57
2023/09/29 07:41:39;;;;;;;11.50;5.72;;;24.00;85.10;;;;;;5016118;28;20037;-56
2023/09/29 07:44:05;;;;;;;7.15;5.38;;;23.90;83.70;;;;;;5025002;28;20025;-56
2023/09/29 07:46:30;;;;;;;6.78;5.72;;;23.90;83.00;;;;;;5019045;28;20025;-55
2023/09/29 07:48:56;;;;;;;8.13;5.40;;;23.90;83.30;;;;;;5025450;28;20041;-55
2023/09/29 07:51:24;;;;;;;7.10;5.60;;;23.80;83.50;;;;;;5024817;28;20637;-54
2023/09/29 07:53:50;;;;;;;7.45;5.78;;;23.70;80.40;;;;;;5024224;28;20032;-55
2023/09/29 07:56:16;;;;;;;52.58;43.50;;;23.50;81.40;;;;;;5019393;28;20033;-55
2023/09/29 07:58:41;;;;;;;49.92;42.22;;;23.30;81.60;;;;;;5023412;28;20026;-55
2023/09/29 08:01:07;;;;;;;33.75;26.45;;;23.30;81.50;;;;;;5026885;28;20041;-55
2023/09/29 08:03:32;;;;;;;24.48;19.85;;;23.20;81.50;;;;;;5024458;28;20021;-56
2023/09/29 08:05:58;;;;;;;15.45;13.73;;;23.30;81.30;;;;;;5022986;28;20121;-55
2023/09/29 08:08:24;;;;;;;13.43;11.13;;;23.30;80.80;;;;;;5022994;28;20489;-56
2023/09/29 08:10:50;;;;;;;9.75;8.75;;;23.30;80.10;;;;;;5023737;28;20109;-56
2023/09/29 08:13:16;;;;;;;9.25;7.53;;;23.30;80.40;;;;;;5024910;28;20113;-56
2023/09/29 08:15:42;;;;;;;9.25;6.80;;;23.30;80.20;;;;;;5027947;28;20021;-54
2023/09/29 08:18:08;;;;;;;8.50;6.00;;;23.50;80.30;;;;;;5021397;28;20037;-56
2023/09/29 08:20:33;;;;;;;10.02;6.10;;;23.70;80.00;;;;;;5023107;28;20017;-56
2023/09/29 08:22:59;;;;;;;6.75;5.90;;;23.70;78.60;;;;;;5022662;28;20029;-54
2023/09/29 08:25:25;;;;;;;8.45;5.80;;;23.60;77.10;;;;;;5025704;28;20052;-55
2023/09/29 08:27:51;;;;;;;6.78;6.10;;;23.70;76.70;;;;;;5021335;28;20509;-56
2023/09/29 08:30:17;;;;;;;5.07;4.57;;;23.80;76.30;;;;;;5024685;28;20080;-56
2023/09/29 08:32:43;;;;;;;8.32;5.20;;;23.90;77.00;;;;;;5027820;28;20033;-54
2023/09/29 08:35:13;;;;;;;7.03;5.05;;;24.20;74.80;;;;;;5025340;28;20090;-56
2023/09/29 08:37:40;;;;;;;6.90;4.82;;;24.30;75.00;;;;;;5014787;28;20076;-55
2023/09/29 08:40:09;;;;;;;7.93;5.22;;;24.60;75.80;;;;;;5022353;28;20034;-61
2023/09/29 08:42:36;;;;;;;5.22;3.78;;;24.80;71.50;;;;;;5026130;28;20082;-60
2023/09/29 08:45:07;;;;;;;5.47;4.22;;;25.10;73.90;;;;;;5027407;28;20032;-61
2023/09/29 08:47:36;;;;;;;5.88;4.95;;;25.30;72.40;;;;;;5025181;28;20033;-60
2023/09/29 08:50:04;;;;;;;5.97;4.20;;;25.30;70.40;;;;;;5032077;28;20025;-60
2023/09/29 08:52:32;;;;;;;6.18;4.53;;;25.30;71.10;;;;;;5025566;28;20061;-60
2023/09/29 08:54:59;;;;;;;6.15;4.43;;;25.40;71.50;;;;;;5022082;28;20032;-60
2023/09/29 08:57:25;;;;;;;4.40;4.00;;;25.40;70.90;;;;;;5020058;28;20029;-60
2023/09/29 08:59:53;;;;;;;5.75;4.00;;;25.40;70.40;;;;;;5022880;28;20467;-60
2023/09/29 09:02:19;;;;;;;6.47;4.40;;;25.30;69.80;;;;;;5023038;28;20028;-60
2023/09/29 09:04:47;;;;;;;5.10;4.13;;;25.30;70.10;;;;;;5029118;28;20029;-60
2023/09/29 09:07:14;;;;;;;5.95;4.00;;;25.30;69.70;;;;;;5029243;28;20740;-61
2023/09/29 09:09:49;;;;;;;5.43;3.90;;;25.20;69.80;;;;;;5025441;28;20021;-60
2023/09/29 09:12:15;;;;;;;5.28;4.43;;;25.30;69.20;;;;;;5025967;28;20113;-60
2023/09/29 09:14:42;;;;;;;4.70;4.30;;;25.20;69.20;;;;;;5029210;28;20025;-60
2023/09/29 09:17:09;;;;;;;5.50;3.85;;;25.10;69.50;;;;;;5021913;28;20064;-60
2023/09/29 09:19:43;;;;;;;4.32;3.92;;;25.20;69.10;;;;;;5027061;28;20025;-60
2023/09/29 09:22:14;;;;;;;5.93;4.23;;;25.10;67.60;;;;;;5026923;28;20086;-60
2023/09/29 09:24:40;;;;;;;4.35;3.78;;;24.90;68.10;;;;;;5027388;28;20025;-61
2023/09/29 09:27:05;;;;;;;4.95;4.18;;;24.70;68.50;;;;;;5027016;28;20030;-60
2023/09/29 09:29:30;;;;;;;4.25;3.63;;;24.60;68.80;;;;;;5030114;28;20064;-60
2023/09/29 09:31:59;;;;;;;6.90;4.90;;;24.60;68.90;;;;;;5027890;28;20036;-60
2023/09/29 09:34:32;;;;;;;4.75;4.20;;;24.50;69.00;;;;;;5024834;28;20112;-61
2023/09/29 09:36:58;;;;;;;4.70;4.10;;;24.50;68.90;;;;;;5022271;28;20030;-60
2023/09/29 09:39:24;;;;;;;7.45;4.10;;;24.50;69.10;;;;;;5027384;28;20017;-60
2023/09/29 09:41:54;;;;;;;4.55;4.15;;;24.50;68.90;;;;;;5025385;28;20363;-60
2023/09/29 09:44:21;;;;;;;4.00;3.60;;;24.50;68.70;;;;;;5010849;28;20033;-60
2023/09/29 09:46:57;;;;;;;4.80;4.28;;;24.50;69.00;;;;;;5019715;28;20025;-55
2023/09/29 09:49:38;;;;;;;8.10;4.38;;;24.50;68.70;;;;;;5024622;28;20049;-61
2023/09/29 09:52:08;;;;;;;4.95;3.97;;;24.40;68.70;;;;;;5024174;28;20079;-60
2023/09/29 09:54:48;;;;;;;6.20;3.92;;;24.40;68.80;;;;;;5023731;28;20386;-59
2023/09/29 09:57:22;;;;;;;6.28;4.25;;;24.40;68.40;;;;;;5025436;28;20105;-60
2023/09/29 09:59:49;;;;;;;5.20;4.22;;;24.30;68.70;;;;;;5023738;28;20041;-61
2023/09/29 10:02:16;;;;;;;5.43;4.30;;;24.20;68.60;;;;;;5026665;28;20038;-60
2023/09/29 10:04:43;;;;;;;4.53;4.07;;;24.10;68.70;;;;;;5028809;28;20497;-59
2023/09/29 10:07:09;;;;;;;6.00;4.15;;;24.10;68.80;;;;;;5028764;28;20484;-59
2023/09/29 10:09:45;;;;;;;4.78;4.25;;;24.10;68.90;;;;;;5026743;28;20074;-60
2023/09/29 10:12:32;;;;;;;5.20;3.65;;;24.00;68.60;;;;;;5028258;28;20013;-60
2023/09/29 10:14:58;;;;;;;5.15;4.00;;;23.80;69.00;;;;;;5027336;28;20030;-60
2023/09/29 10:17:25;;;;;;;5.03;4.22;;;23.70;69.70;;;;;;5032240;28;20029;-60
2023/09/29 10:19:50;;;;;;;5.57;3.90;;;23.70;69.90;;;;;;5026164;28;20029;-60
2023/09/29 10:22:24;;;;;;;6.00;4.20;;;23.60;70.00;;;;;;5028468;28;20025;-60
2023/09/29 10:24:56;;;;;;;5.43;3.67;;;23.60;70.40;;;;;;5028970;28;20072;-60
2023/09/29 10:27:32;;;;;;;4.93;4.20;;;23.60;70.30;;;;;;5025803;28;20080;-60
2023/09/29 10:30:18;;;;;;;5.05;4.00;;;23.50;70.40;;;;;;5025852;28;20112;-59
2023/09/29 10:32:46;;;;;;;6.15;4.53;;;23.60;70.60;;;;;;5027623;28;20030;-59
2023/09/29 10:35:19;;;;;;;4.88;4.38;;;23.60;70.60;;;;;;5024312;28;20091;-59
2023/09/29 10:37:49;;;;;;;5.05;4.55;;;23.50;70.70;;;;;;5024628;28;20025;-59
2023/09/29 10:40:22;;;;;;;5.75;4.38;;;23.50;70.70;;;;;;5027373;28;20034;-59
2023/09/29 10:42:48;;;;;;;5.63;3.97;;;23.50;70.80;;;;;;5028930;28;20021;-59
2023/09/29 10:45:28;;;;;;;3.63;3.33;;;23.40;70.90;;;;;;5029700;28;20456;-60
2023/09/29 10:48:00;;;;;;;5.18;3.88;;;23.40;71.50;;;;;;5022015;28;20032;-59
2023/09/29 10:50:26;;;;;;;5.97;4.07;;;23.50;71.50;;;;;;5025302;28;20029;-59
2023/09/29 10:52:51;;;;;;;5.40;4.10;;;23.50;71.60;;;;;;5026781;28;20058;-59
2023/09/29 10:55:17;;;;;;;6.15;4.78;;;23.50;71.60;;;;;;5024132;28;20032;-59
2023/09/29 10:57:43;;;;;;;5.53;4.43;;;23.50;71.80;;;;;;5025678;28;20520;-60
2023/09/29 11:00:09;;;;;;;6.28;4.65;;;23.50;71.70;;;;;;5027993;28;20037;-59
2023/09/29 11:02:36;;;;;;;5.10;4.05;;;23.40;71.90;;;;;;5028226;28;20392;-60
2023/09/29 11:05:04;;;;;;;5.30;4.38;;;23.40;72.10;;;;;;5024916;28;20032;-59
2023/09/29 11:07:30;;;;;;;5.47;4.28;;;23.40;72.10;;;;;;5026137;28;20021;-59
2023/09/29 11:09:59;;;;;;;5.35;4.20;;;23.40;72.10;;;;;;5030182;28;20040;-59
2023/09/29 11:12:27;;;;;;;4.65;4.15;;;23.40;72.30;;;;;;5023944;28;20036;-60
2023/09/29 11:15:03;;;;;;;4.95;4.40;;;23.50;72.20;;;;;;5018626;28;20032;-59
2023/09/29 11:17:29;;;;;;;7.70;4.25;;;23.50;72.20;;;;;;5031718;28;20029;-60
2023/09/29 11:19:54;;;;;;;4.95;3.92;;;23.50;72.40;;;;;;5032103;28;20049;-60
2023/09/29 11:22:20;;;;;;;4.97;4.22;;;23.60;72.50;;;;;;5023740;28;20080;-60
2023/09/29 11:24:50;;;;;;;5.82;4.20;;;23.70;72.70;;;;;;5026898;28;20384;-60
2023/09/29 11:27:19;;;;;;;7.97;4.80;;;23.90;72.90;;;;;;5026057;28;20119;-59
2023/09/29 11:33:10;;;;;;;5.40;4.03;;;24.10;72.10;;;;;;5020896;28;20032;-60
2023/09/29 11:35:36;;;;;;;9.85;4.75;;;24.30;72.20;;;;;;5024399;28;20096;-60
2023/09/29 11:38:03;;;;;;;5.72;3.95;;;24.40;72.20;;;;;;5025948;28;20565;-60
2023/09/29 11:40:28;;;;;;;5.63;4.07;;;24.40;71.30;;;;;;5019449;28;20120;-61
2023/09/29 11:42:54;;;;;;;5.35;4.45;;;24.40;71.20;;;;;;5026428;28;20121;-61
2023/09/29 11:45:19;;;;;;;5.18;4.00;;;24.50;71.10;;;;;;5024487;28;20405;-61
2023/09/29 11:47:44;;;;;;;3.63;3.22;;;24.50;71.80;;;;;;5022103;28;20037;-59
2023/09/29 11:50:11;;;;;;;7.07;3.10;;;24.50;71.00;;;;;;5026386;28;20079;-60
2023/09/29 11:52:39;;;;;;;7.57;4.13;;;24.50;70.90;;;;;;5018450;28;20026;-59
2023/09/29 11:55:08;;;;;;;5.70;3.88;;;24.50;70.90;;;;;;5025393;28;20048;-59
2023/09/29 11:57:37;;;;;;;5.65;3.45;;;24.40;70.40;;;;;;5030182;28;20094;-62
2023/09/29 12:00:08;;;;;;;4.82;3.45;;;24.40;70.90;;;;;;5028189;28;20490;-62
2023/09/29 12:02:41;;;;;;;5.20;4.60;;;24.30;71.20;;;;;;5023396;28;20037;-61
2023/09/29 12:05:09;;;;;;;4.00;3.60;;;24.20;71.40;;;;;;5018900;28;20471;-62
2023/09/29 12:07:35;;;;;;;8.07;4.30;;;24.20;71.90;;;;;;5024912;28;20025;-61
2023/09/29 12:10:01;;;;;;;4.35;3.85;;;24.00;72.00;;;;;;5012005;28;20539;-60
2023/09/29 12:12:26;;;;;;;7.72;4.45;;;23.90;72.50;;;;;;5022896;28;20579;-60
2023/09/29 12:14:52;;;;;;;5.30;4.18;;;23.80;73.00;;;;;;5026774;28;20045;-60
2023/09/29 12:17:18;;;;;;;6.00;4.50;;;23.70;73.30;;;;;;5029140;28;20028;-60
2023/09/29 12:19:44;;;;;;;9.32;4.53;;;23.60;73.60;;;;;;5030128;28;20029;-60
2023/09/29 12:22:09;;;;;;;8.10;5.13;;;23.50;73.70;;;;;;5023463;28;20057;-61
2023/09/29 12:24:35;;;;;;;6.60;4.70;;;23.50;73.70;;;;;;5025388;28;20029;-61
2023/09/29 12:27:01;;;;;;;7.45;4.80;;;23.30;74.00;;;;;;5024419;28;20033;-60
2023/09/29 12:29:29;;;;;;;5.85;4.90;;;23.20;74.30;;;;;;5027126;28;20044;-60
2023/09/29 12:31:55;;;;;;;8.13;4.65;;;23.20;74.60;;;;;;5029650;28;20074;-60
2023/09/29 12:34:20;;;;;;;4.20;3.80;;;23.10;75.00;;;;;;5003885;28;20021;-60
2023/09/29 12:36:46;;;;;;;7.53;4.35;;;23.00;75.30;;;;;;5025095;28;20689;-60
2023/09/29 12:39:12;;;;;;;8.82;4.10;;;23.00;75.30;;;;;;5030658;28;20415;-61